Weather reports worldwide

Advertisment
Melsom, Norway (1481): temperature & dewpoint: 18.01.2019 00:00:00 - 24.01.2019 00:00:00 (CET)Melsom, Norway (1481): wind speed & gusts: 18.01.2019 00:00:00 - 24.01.2019 00:00:00 (CET)Melsom, Norway (1481): wind direction: 18.01.2019 00:00:00 - 24.01.2019 00:00:00 (CET)Melsom, Norway (1481): reduced air pressure: 18.01.2019 00:00:00 - 24.01.2019 00:00:00 (CET)Melsom, Norway (1481): precipitation: 18.01.2019 00:00:00 - 24.01.2019 00:00:00 (CET)
Date & Time tt [°C] td [°C] ff [km/h] ff [kn] fx [km/h] fx [kn] dd ppp [hPa] rr [mm]
24.01.2019 00:00:00 0,4 -2,8 5 3 17 9 SSE 1010,6 0,0
23.01.2019 23:00:00 -0,3 -2,7 4 2 14 8 S 1010,4 0,0
23.01.2019 22:00:00 -0,3 -2,7 4 2 10 5 S 1010,2 0,0
23.01.2019 21:00:00 -0,4 -2,8 4 2 13 7 SE 1009,7 0,0
23.01.2019 20:00:00 -0,7 -2,5 8 4 10 6 E 1009,5 0,0
23.01.2019 19:00:00 -1,1 -3,0 3 2 - - NNE 1009,3 0,0
23.01.2019 18:00:00 -0,4 -2,3 6 3 14 8 E 1008,9 0,0
23.01.2019 17:00:00 -0,5 -2,0 7 4 14 7 E 1008,7 0,0
23.01.2019 16:00:00 -2,5 -4,0 4 2 7 4 NNW 1008,4 0,0
23.01.2019 15:00:00 -2,3 -4,2 3 2 8 5 NNW 1008,0 0,0
23.01.2019 14:00:00 -2,6 -4,5 5 3 10 5 NNW 1007,8 0,0
23.01.2019 13:00:00 -2,6 -4,5 4 2 - - N 1007,7 0,0
23.01.2019 12:00:00 -2,8 -4,7 5 3 10 5 N 1007,7 0,0
23.01.2019 11:00:00 -3,0 -4,5 5 3 13 7 N 1007,6 0,0
23.01.2019 10:00:00 -3,4 -4,8 5 3 12 7 NNW 1007,3 0,0
23.01.2019 09:00:00 -3,7 -5,1 6 3 13 7 N 1007,0 0,0
23.01.2019 08:00:00 -3,7 -5,1 6 4 14 8 N 1006,5 0,0
23.01.2019 07:00:00 -3,8 -5,0 7 4 - - N 1006,1 0,0
23.01.2019 06:00:00 -4,0 -5,2 6 3 11 6 N 1006,0 0,0
23.01.2019 05:00:00 -4,2 -5,6 6 3 13 7 N 1005,9 0,0
23.01.2019 04:00:00 -4,2 -5,4 7 4 14 7 N 1005,8 0,0
23.01.2019 03:00:00 -4,2 -5,3 6 4 13 7 N 1005,8 0,5
23.01.2019 02:00:00 -4,0 -5,2 5 3 14 7 N 1006,0 0,3
23.01.2019 01:00:00 -4,2 -5,3 4 2 - - NNW 1006,0 0,0
23.01.2019 00:00:00 -4,6 -5,6 7 4 18 10 NNW 1006,3 2,0
22.01.2019 23:00:00 -4,5 -5,7 6 4 16 8 NNW 1006,3 0,3
22.01.2019 22:00:00 -4,7 -5,8 8 4 14 7 N 1006,4 1,0
22.01.2019 21:00:00 -4,6 -5,7 9 5 16 9 N 1006,6 0,9
22.01.2019 20:00:00 -4,6 -6,0 6 4 14 7 N 1006,6 0,1
22.01.2019 19:00:00 -4,7 -6,2 7 4 - - N 1007,1 0,1
22.01.2019 18:00:00 -4,9 -6,5 9 5 17 9 N 1007,4 0,0
22.01.2019 17:00:00 -5,1 -6,8 10 6 24 13 N 1007,7 0,0
22.01.2019 16:00:00 -5,1 -6,7 9 5 18 10 N 1008,1 0,1
22.01.2019 15:00:00 -4,9 -6,8 10 5 19 10 N 1008,3 0,0
22.01.2019 14:00:00 -4,9 -6,9 9 5 20 11 N 1008,9 0,0
22.01.2019 13:00:00 -4,9 -6,8 10 5 - - N 1009,5 0,0
22.01.2019 12:00:00 -5,0 -6,8 10 5 20 11 N 1010,0 0,0
22.01.2019 11:00:00 -5,3 -7,0 9 5 20 11 N 1010,4 0,0
22.01.2019 10:00:00 -5,3 -6,9 9 5 18 10 N 1010,6 0,0
22.01.2019 09:00:00 -5,3 -6,8 11 6 19 10 N 1010,8 0,0
22.01.2019 08:00:00 -5,3 -6,8 8 5 18 10 N 1010,8 0,0
22.01.2019 07:00:00 -5,3 -6,9 9 5 - - N 1011,1 0,0
22.01.2019 06:00:00 -5,3 -7,5 6 4 15 8 N 1011,4 0,0
22.01.2019 05:00:00 -5,2 -7,4 7 4 14 8 N 1011,9 0,0
22.01.2019 04:00:00 -5,2 -7,4 6 3 13 7 N 1012,3 0,0
22.01.2019 03:00:00 -5,3 -7,5 6 3 12 6 N 1012,9 0,0
22.01.2019 02:00:00 -5,3 -7,6 4 2 15 8 - 1013,3 0,0
22.01.2019 01:00:00 -5,3 -7,6 7 4 - - N 1013,7 0,0
22.01.2019 00:00:00 -5,5 -7,8 8 4 15 8 N 1014,1 0,0
21.01.2019 23:00:00 -6,0 -8,1 6 3 11 6 N 1014,6 0,0
21.01.2019 22:00:00 -6,7 -8,6 6 3 14 7 N 1014,7 0,0
21.01.2019 21:00:00 -7,2 -8,9 6 3 12 6 N 1014,8 0,0
21.01.2019 20:00:00 -8,3 -9,9 6 3 13 7 N 1015,0 0,0
21.01.2019 19:00:00 -7,6 -9,5 6 4 - - N 1015,3 0,0
21.01.2019 18:00:00 -7,0 -8,7 5 3 10 6 N 1015,1 0,0
21.01.2019 17:00:00 -6,2 -8,1 5 3 16 9 N 1015,0 0,0
21.01.2019 16:00:00 -5,0 -7,3 9 5 19 10 N 1014,6 0,0
21.01.2019 15:00:00 -3,9 -7,0 9 5 19 11 N 1014,3 0,0
21.01.2019 14:00:00 -3,8 -6,7 8 5 19 10 N 1014,4 0,0
21.01.2019 13:00:00 -3,9 -6,5 10 5 - - N 1014,2 0,0
21.01.2019 12:00:00 -4,0 -6,3 10 5 18 10 N 1014,4 0,0
21.01.2019 11:00:00 -4,3 -6,3 10 5 19 10 N 1014,3 0,0
21.01.2019 10:00:00 -4,5 -6,3 9 5 20 11 N 1013,9 0,0
21.01.2019 09:00:00 -4,5 -6,3 9 5 17 9 N 1013,4 0,0
21.01.2019 08:00:00 -4,6 -6,1 5 3 13 7 N 1012,6 0,0
21.01.2019 07:00:00 -4,5 -5,6 5 3 - - N 1012,3 0,1
21.01.2019 06:00:00 -4,6 -5,6 5 3 10 5 N 1012,4 0,3
21.01.2019 05:00:00 -4,6 -5,7 5 3 10 6 N 1012,7 0,3
21.01.2019 04:00:00 -4,4 -5,6 5 3 10 5 N 1013,0 0,2
21.01.2019 03:00:00 -4,3 -6,1 4 2 9 5 N 1013,4 0,0
21.01.2019 02:00:00 -4,9 -6,4 4 2 6 4 NNW 1013,7 0,0
21.01.2019 01:00:00 -4,4 -6,2 2 1 - - NNE 1014,5 0,0
21.01.2019 00:00:00 -4,2 -6,2 3 1 10 5 N 1015,1 0,0
20.01.2019 23:00:00 -3,7 -5,9 2 1 7 4 N 1015,7 0,0
20.01.2019 22:00:00 -4,4 -6,4 3 1 6 4 N 1015,9 0,0
20.01.2019 21:00:00 -4,8 -6,7 3 2 6 4 NNW 1016,5 0,0
20.01.2019 20:00:00 -4,7 -6,6 2 1 6 3 NNE 1016,9 0,0
20.01.2019 19:00:00 -5,2 -7,1 4 2 - - NNW 1017,5 0,0
20.01.2019 18:00:00 -4,9 -6,9 2 1 8 4 NNE 1017,8 0,0
20.01.2019 17:00:00 -5,4 -7,4 1 1 3 1 N 1018,0 0,0
20.01.2019 16:00:00 -4,0 -7,0 2 1 4 2 N 1018,2 0,0
20.01.2019 15:00:00 -3,6 -6,8 2 1 4 2 NW 1018,5 0,0
20.01.2019 14:00:00 -3,7 -7,1 1 1 6 3 NW 1018,8 0,0
20.01.2019 13:00:00 -3,9 -6,4 1 0 - - N 1019,0 0,0
20.01.2019 12:00:00 -6,4 -7,5 3 2 11 6 NNW 1018,8 0,0
20.01.2019 11:00:00 -7,5 -8,6 4 2 7 4 NNW 1018,9 0,0
20.01.2019 10:00:00 -8,3 -9,4 3 2 6 3 NNW 1018,6 0,0
20.01.2019 09:00:00 -8,3 -9,3 3 2 6 3 NNE 1018,0 0,0
20.01.2019 08:00:00 -7,8 -8,6 4 2 5 3 N 1017,4 0,0
20.01.2019 07:00:00 -7,4 -8,5 4 2 - - NNE 1016,8 0,0
20.01.2019 06:00:00 -6,7 -8,0 3 2 5 3 NNE 1016,8 0,0
20.01.2019 05:00:00 -5,3 -7,0 2 1 6 4 NNE 1016,4 0,0
20.01.2019 04:00:00 -5,7 -7,4 4 2 11 6 NNW 1016,0 0,0
20.01.2019 03:00:00 -6,3 -7,8 4 2 11 6 NNW 1015,6 0,0
20.01.2019 02:00:00 -5,5 -7,1 4 2 7 4 N 1015,1 0,0
20.01.2019 01:00:00 -4,8 -6,7 4 2 - - N 1014,7 0,0
20.01.2019 00:00:00 -4,8 -6,7 3 1 8 4 NNE 1014,2 0,0
19.01.2019 23:00:00 -4,1 -7,0 4 2 12 7 NNW 1013,9 0,0
19.01.2019 22:00:00 -3,4 -7,4 4 2 11 6 NNE 1013,1 0,0
19.01.2019 21:00:00 -1,7 -5,7 2 1 8 4 WSW 1012,5 0,0
19.01.2019 20:00:00 -1,8 -5,8 1 1 9 5 WSW 1012,3 0,0
19.01.2019 19:00:00 0,3 -5,9 5 3 - - S 1012,0 0,0
19.01.2019 18:00:00 -0,6 -4,7 6 3 14 7 S 1011,7 0,0
19.01.2019 17:00:00 0,3 -5,3 6 3 12 7 S 1011,5 0,0
19.01.2019 16:00:00 1,0 -5,9 5 3 14 8 SSW 1011,1 0,0
19.01.2019 15:00:00 1,9 -5,7 8 4 21 11 SW 1011,0 0,0
19.01.2019 14:00:00 1,7 -5,9 11 6 22 12 SW 1011,1 0,0
19.01.2019 13:00:00 1,6 -6,0 10 5 - - SW 1011,2 0,0
19.01.2019 12:00:00 1,0 -6,3 11 6 23 13 SW 1011,4 0,0
19.01.2019 11:00:00 -0,1 -6,0 7 4 19 10 S 1011,6 0,0
19.01.2019 10:00:00 -1,2 -6,3 9 5 18 10 SSW 1011,4 0,0
19.01.2019 09:00:00 -2,7 -6,9 7 4 16 9 S 1011,3 0,0
19.01.2019 08:00:00 -3,1 -6,8 8 4 15 8 SSW 1011,4 0,0
19.01.2019 07:00:00 -1,1 -6,5 9 5 - - SSW 1011,4 0,0
19.01.2019 06:00:00 -1,9 -6,4 4 2 18 10 SSW 1011,4 0,0
19.01.2019 05:00:00 -0,8 -6,3 7 4 17 9 SSW 1011,6 0,0
19.01.2019 04:00:00 -1,1 -6,2 9 5 19 10 SW 1011,9 0,0
19.01.2019 03:00:00 -2,3 -6,7 6 3 14 8 SW 1011,9 0,0
19.01.2019 02:00:00 -2,2 -7,1 5 3 14 7 SSW 1012,0 0,0
19.01.2019 01:00:00 -4,3 -7,3 6 3 - - SSW 1012,1 0,0
19.01.2019 00:00:00 -4,6 -7,5 4 2 6 3 SW 1012,2 0,0
18.01.2019 23:00:00 -2,7 -6,9 0 0 7 4 N 1012,1 0,0
18.01.2019 22:00:00 -1,6 -6,8 5 3 11 6 WSW 1012,1 0,0
18.01.2019 21:00:00 -3,4 -6,8 3 1 5 3 SW 1011,7 0,0
18.01.2019 20:00:00 -3,6 -6,6 3 1 5 3 SW 1011,6 0,0
18.01.2019 19:00:00 -3,8 -7,0 1 0 - - NE 1011,4 0,0
18.01.2019 18:00:00 -3,6 -6,8 3 1 6 3 SSW 1011,4 0,0
18.01.2019 17:00:00 -3,1 -7,1 1 1 4 2 E 1011,1 0,0
18.01.2019 16:00:00 -3,0 -7,0 1 1 4 2 SE 1010,8 0,0
18.01.2019 15:00:00 -2,6 -7,6 1 1 3 1 NE 1010,1 0,0
18.01.2019 14:00:00 -2,2 -8,0 3 1 7 4 SW 1009,9 0,0
18.01.2019 13:00:00 -3,0 -8,7 3 2 - - SW 1009,4 0,0
18.01.2019 12:00:00 -3,7 -8,9 1 1 12 6 NW 1009,3 0,0
18.01.2019 11:00:00 -4,5 -9,1 2 1 6 3 S 1008,7 0,0
18.01.2019 10:00:00 -4,6 -10,3 1 1 15 8 NNE 1008,6 0,0
18.01.2019 09:00:00 -6,2 -10,8 3 1 10 5 WNW 1008,2 0,0
18.01.2019 08:00:00 -5,1 -10,9 5 3 12 6 WSW 1008,0 0,0
18.01.2019 07:00:00 -10,2 -12,8 1 1 - - N 1008,2 0,0
18.01.2019 06:00:00 -9,1 -12,2 2 1 11 6 NW 1008,1 0,0
18.01.2019 05:00:00 -10,7 -13,5 11 6 11 6 NNW 1007,8 0,0
18.01.2019 04:00:00 -9,9 -12,3 2 1 5 3 NNW 1007,5 0,0
18.01.2019 03:00:00 -10,3 -11,6 1 1 4 2 N 1007,2 0,0
18.01.2019 02:00:00 -12,0 -14,5 0 0 8 4 N 1006,7 0,0
18.01.2019 01:00:00 -12,1 -13,5 5 3 - - N 1006,2 0,0
18.01.2019 00:00:00 -10,3 -11,6 4 2 7 4 NNE 1005,4 0,0

tt = temperature
td = dewpoint
ff = wind speed
fx = gusts
dd = wind direction
ppp = reduced air pressure
rr = precipitation

Next stations